sensor_id;sensor_type;location;lat;lon;timestamp;temperature;humidity
24470;DHT22;12635;50.852;5.676;2023-03-14T00:00:24;8.40;99.90
24470;DHT22;12635;50.852;5.676;2023-03-14T00:02:51;8.50;99.90
24470;DHT22;12635;50.852;5.676;2023-03-14T00:05:19;8.50;99.90
24470;DHT22;12635;50.852;5.676;2023-03-14T00:07:47;8.50;99.90
24470;DHT22;12635;50.852;5.676;2023-03-14T00:10:14;8.50;99.90
24470;DHT22;12635;50.852;5.676;2023-03-14T00:12:41;8.40;99.90
24470;DHT22;12635;50.852;5.676;2023-03-14T00:15:09;8.50;99.90
24470;DHT22;12635;50.852;5.676;2023-03-14T00:17:36;8.60;99.90
24470;DHT22;12635;50.852;5.676;2023-03-14T00:20:03;8.60;99.90
24470;DHT22;12635;50.852;5.676;2023-03-14T00:22:33;8.60;99.90
24470;DHT22;12635;50.852;5.676;2023-03-14T00:25:02;8.80;99.90
24470;DHT22;12635;50.852;5.676;2023-03-14T00:27:29;8.80;99.90
24470;DHT22;12635;50.852;5.676;2023-03-14T00:29:56;8.90;99.90
24470;DHT22;12635;50.852;5.676;2023-03-14T00:32:22;9.00;99.90
24470;DHT22;12635;50.852;5.676;2023-03-14T00:34:50;8.90;99.90
24470;DHT22;12635;50.852;5.676;2023-03-14T00:37:16;8.90;99.90
24470;DHT22;12635;50.852;5.676;2023-03-14T00:39:43;9.00;99.90
24470;DHT22;12635;50.852;5.676;2023-03-14T00:42:11;9.00;99.90
24470;DHT22;12635;50.852;5.676;2023-03-14T00:44:38;8.90;99.90
24470;DHT22;12635;50.852;5.676;2023-03-14T00:47:05;8.90;99.90
24470;DHT22;12635;50.852;5.676;2023-03-14T00:49:32;9.00;99.90
24470;DHT22;12635;50.852;5.676;2023-03-14T00:51:59;8.90;99.90
24470;DHT22;12635;50.852;5.676;2023-03-14T00:54:26;8.90;99.90
24470;DHT22;12635;50.852;5.676;2023-03-14T00:56:53;8.90;99.90
24470;DHT22;12635;50.852;5.676;2023-03-14T00:59:21;9.00;99.90
24470;DHT22;12635;50.852;5.676;2023-03-14T01:01:48;9.00;99.90
24470;DHT22;12635;50.852;5.676;2023-03-14T01:04:15;8.90;99.90
24470;DHT22;12635;50.852;5.676;2023-03-14T01:06:41;8.80;99.90
24470;DHT22;12635;50.852;5.676;2023-03-14T01:09:08;8.80;99.90
24470;DHT22;12635;50.852;5.676;2023-03-14T01:11:35;8.80;99.90
24470;DHT22;12635;50.852;5.676;2023-03-14T01:14:02;8.80;99.90
24470;DHT22;12635;50.852;5.676;2023-03-14T01:16:31;8.90;99.90
24470;DHT22;12635;50.852;5.676;2023-03-14T01:18:58;8.90;99.90
24470;DHT22;12635;50.852;5.676;2023-03-14T01:21:26;8.80;99.90
24470;DHT22;12635;50.852;5.676;2023-03-14T01:23:53;9.10;99.90
24470;DHT22;12635;50.852;5.676;2023-03-14T01:26:21;9.30;99.90
24470;DHT22;12635;50.852;5.676;2023-03-14T01:28:49;9.40;99.90
24470;DHT22;12635;50.852;5.676;2023-03-14T01:31:16;9.30;99.90
24470;DHT22;12635;50.852;5.676;2023-03-14T01:33:45;9.50;99.90
24470;DHT22;12635;50.852;5.676;2023-03-14T01:36:12;9.40;99.90
24470;DHT22;12635;50.852;5.676;2023-03-14T01:38:39;9.40;99.90
24470;DHT22;12635;50.852;5.676;2023-03-14T01:41:06;9.50;99.90
24470;DHT22;12635;50.852;5.676;2023-03-14T01:43:33;9.30;99.90
24470;DHT22;12635;50.852;5.676;2023-03-14T01:46:12;9.50;99.90
24470;DHT22;12635;50.852;5.676;2023-03-14T01:48:40;9.40;99.90
24470;DHT22;12635;50.852;5.676;2023-03-14T01:51:11;9.60;99.90
24470;DHT22;12635;50.852;5.676;2023-03-14T01:53:40;9.60;99.90
24470;DHT22;12635;50.852;5.676;2023-03-14T01:56:09;9.60;99.90
24470;DHT22;12635;50.852;5.676;2023-03-14T01:58:37;9.60;99.90
24470;DHT22;12635;50.852;5.676;2023-03-14T02:01:05;9.80;99.90
24470;DHT22;12635;50.852;5.676;2023-03-14T02:03:34;9.70;99.90
24470;DHT22;12635;50.852;5.676;2023-03-14T02:06:06;9.70;99.90
24470;DHT22;12635;50.852;5.676;2023-03-14T02:08:35;9.80;99.90
24470;DHT22;12635;50.852;5.676;2023-03-14T02:11:02;9.80;99.90
24470;DHT22;12635;50.852;5.676;2023-03-14T02:13:29;9.80;99.90
24470;DHT22;12635;50.852;5.676;2023-03-14T02:15:55;9.90;99.90
24470;DHT22;12635;50.852;5.676;2023-03-14T02:18:22;9.70;99.90
24470;DHT22;12635;50.852;5.676;2023-03-14T02:20:50;9.70;99.90
24470;DHT22;12635;50.852;5.676;2023-03-14T02:23:20;9.50;99.90
24470;DHT22;12635;50.852;5.676;2023-03-14T02:25:51;9.40;99.90
24470;DHT22;12635;50.852;5.676;2023-03-14T02:28:21;9.40;99.90
24470;DHT22;12635;50.852;5.676;2023-03-14T02:30:48;9.20;99.90
24470;DHT22;12635;50.852;5.676;2023-03-14T02:33:16;8.90;99.90
24470;DHT22;12635;50.852;5.676;2023-03-14T02:35:44;9.00;99.90
24470;DHT22;12635;50.852;5.676;2023-03-14T02:38:15;8.90;99.90
24470;DHT22;12635;50.852;5.676;2023-03-14T02:40:43;8.90;99.90
24470;DHT22;12635;50.852;5.676;2023-03-14T02:43:10;8.90;99.90
24470;DHT22;12635;50.852;5.676;2023-03-14T02:45:40;8.90;99.90
24470;DHT22;12635;50.852;5.676;2023-03-14T02:48:09;8.80;99.90
24470;DHT22;12635;50.852;5.676;2023-03-14T02:50:37;8.70;99.90
24470;DHT22;12635;50.852;5.676;2023-03-14T02:53:04;8.70;99.90
24470;DHT22;12635;50.852;5.676;2023-03-14T02:55:31;8.70;99.90
24470;DHT22;12635;50.852;5.676;2023-03-14T02:57:58;8.70;99.90
24470;DHT22;12635;50.852;5.676;2023-03-14T03:00:25;8.70;99.90
24470;DHT22;12635;50.852;5.676;2023-03-14T03:02:53;8.60;99.90
24470;DHT22;12635;50.852;5.676;2023-03-14T03:05:20;8.60;99.90
24470;DHT22;12635;50.852;5.676;2023-03-14T03:07:47;8.70;99.90
24470;DHT22;12635;50.852;5.676;2023-03-14T03:10:14;8.70;99.90
24470;DHT22;12635;50.852;5.676;2023-03-14T03:12:41;8.70;99.90
24470;DHT22;12635;50.852;5.676;2023-03-14T03:15:08;8.60;99.90
24470;DHT22;12635;50.852;5.676;2023-03-14T03:17:35;8.70;99.90
24470;DHT22;12635;50.852;5.676;2023-03-14T03:20:03;8.70;99.90
24470;DHT22;12635;50.852;5.676;2023-03-14T03:22:34;8.80;99.90
24470;DHT22;12635;50.852;5.676;2023-03-14T03:25:01;8.80;99.90
24470;DHT22;12635;50.852;5.676;2023-03-14T03:27:29;8.80;99.90
24470;DHT22;12635;50.852;5.676;2023-03-14T03:29:56;8.90;99.90
24470;DHT22;12635;50.852;5.676;2023-03-14T03:32:23;8.90;99.90
24470;DHT22;12635;50.852;5.676;2023-03-14T03:34:50;8.90;99.90
24470;DHT22;12635;50.852;5.676;2023-03-14T03:37:18;8.90;99.90
24470;DHT22;12635;50.852;5.676;2023-03-14T03:39:45;8.90;99.90
24470;DHT22;12635;50.852;5.676;2023-03-14T03:42:12;8.80;99.90
24470;DHT22;12635;50.852;5.676;2023-03-14T03:44:38;8.80;99.90
24470;DHT22;12635;50.852;5.676;2023-03-14T03:47:05;8.80;99.90
24470;DHT22;12635;50.852;5.676;2023-03-14T03:49:32;8.90;99.90
24470;DHT22;12635;50.852;5.676;2023-03-14T03:51:59;8.80;99.90
24470;DHT22;12635;50.852;5.676;2023-03-14T03:54:28;8.90;99.90
24470;DHT22;12635;50.852;5.676;2023-03-14T03:56:55;9.00;99.90
24470;DHT22;12635;50.852;5.676;2023-03-14T03:59:22;9.10;99.90
24470;DHT22;12635;50.852;5.676;2023-03-14T04:01:49;9.10;99.90
24470;DHT22;12635;50.852;5.676;2023-03-14T04:04:15;9.00;99.90
24470;DHT22;12635;50.852;5.676;2023-03-14T04:06:42;9.10;99.90
24470;DHT22;12635;50.852;5.676;2023-03-14T04:09:09;9.10;99.90
24470;DHT22;12635;50.852;5.676;2023-03-14T04:11:37;9.10;99.90
24470;DHT22;12635;50.852;5.676;2023-03-14T04:14:04;9.00;99.90
24470;DHT22;12635;50.852;5.676;2023-03-14T04:16:31;9.00;99.90
24470;DHT22;12635;50.852;5.676;2023-03-14T04:18:58;9.10;99.90
24470;DHT22;12635;50.852;5.676;2023-03-14T04:21:25;9.20;99.90
24470;DHT22;12635;50.852;5.676;2023-03-14T04:23:52;9.20;99.90
24470;DHT22;12635;50.852;5.676;2023-03-14T04:26:19;9.30;99.90
24470;DHT22;12635;50.852;5.676;2023-03-14T04:28:47;9.30;99.90
24470;DHT22;12635;50.852;5.676;2023-03-14T04:31:15;9.10;99.90
24470;DHT22;12635;50.852;5.676;2023-03-14T04:33:42;9.00;99.90
24470;DHT22;12635;50.852;5.676;2023-03-14T04:36:09;9.00;99.90
24470;DHT22;12635;50.852;5.676;2023-03-14T04:38:36;8.90;99.90
24470;DHT22;12635;50.852;5.676;2023-03-14T04:41:03;9.00;99.90
24470;DHT22;12635;50.852;5.676;2023-03-14T04:43:30;8.80;99.90
24470;DHT22;12635;50.852;5.676;2023-03-14T04:45:58;8.90;99.90
24470;DHT22;12635;50.852;5.676;2023-03-14T04:48:25;9.00;99.90
24470;DHT22;12635;50.852;5.676;2023-03-14T04:50:52;8.90;99.90
24470;DHT22;12635;50.852;5.676;2023-03-14T04:53:19;8.80;99.90
24470;DHT22;12635;50.852;5.676;2023-03-14T04:55:47;8.80;99.90
24470;DHT22;12635;50.852;5.676;2023-03-14T04:58:14;8.70;99.90
24470;DHT22;12635;50.852;5.676;2023-03-14T05:00:41;8.80;99.90
24470;DHT22;12635;50.852;5.676;2023-03-14T05:03:09;8.90;99.90
24470;DHT22;12635;50.852;5.676;2023-03-14T05:05:36;9.00;99.90
24470;DHT22;12635;50.852;5.676;2023-03-14T05:08:03;9.00;99.90
24470;DHT22;12635;50.852;5.676;2023-03-14T05:10:30;9.10;99.90
24470;DHT22;12635;50.852;5.676;2023-03-14T05:12:56;9.00;99.90
24470;DHT22;12635;50.852;5.676;2023-03-14T05:15:23;9.00;99.90
24470;DHT22;12635;50.852;5.676;2023-03-14T05:17:50;9.00;99.90
24470;DHT22;12635;50.852;5.676;2023-03-14T05:20:19;9.00;99.90
24470;DHT22;12635;50.852;5.676;2023-03-14T05:22:46;9.10;99.90
24470;DHT22;12635;50.852;5.676;2023-03-14T05:25:13;9.10;99.90
24470;DHT22;12635;50.852;5.676;2023-03-14T05:27:40;9.10;99.90
24470;DHT22;12635;50.852;5.676;2023-03-14T05:30:07;9.10;99.90
24470;DHT22;12635;50.852;5.676;2023-03-14T05:32:34;9.20;99.90
24470;DHT22;12635;50.852;5.676;2023-03-14T05:35:01;9.20;99.90
24470;DHT22;12635;50.852;5.676;2023-03-14T05:37:30;9.20;99.90
24470;DHT22;12635;50.852;5.676;2023-03-14T05:39:56;9.30;99.90
24470;DHT22;12635;50.852;5.676;2023-03-14T05:42:23;9.30;99.90
24470;DHT22;12635;50.852;5.676;2023-03-14T05:44:50;9.30;99.90
24470;DHT22;12635;50.852;5.676;2023-03-14T05:47:17;9.40;99.90
24470;DHT22;12635;50.852;5.676;2023-03-14T05:49:44;9.50;99.90
24470;DHT22;12635;50.852;5.676;2023-03-14T05:52:11;9.40;99.90
24470;DHT22;12635;50.852;5.676;2023-03-14T05:54:40;9.40;99.90
24470;DHT22;12635;50.852;5.676;2023-03-14T05:57:06;9.40;99.90
24470;DHT22;12635;50.852;5.676;2023-03-14T05:59:33;9.40;99.90
24470;DHT22;12635;50.852;5.676;2023-03-14T06:02:00;9.50;99.90
24470;DHT22;12635;50.852;5.676;2023-03-14T06:04:27;9.40;99.90
24470;DHT22;12635;50.852;5.676;2023-03-14T06:06:54;9.40;99.90
24470;DHT22;12635;50.852;5.676;2023-03-14T06:09:21;9.40;99.90
24470;DHT22;12635;50.852;5.676;2023-03-14T06:11:50;9.30;99.90
24470;DHT22;12635;50.852;5.676;2023-03-14T06:14:17;9.30;99.90
24470;DHT22;12635;50.852;5.676;2023-03-14T06:16:43;9.30;99.90
24470;DHT22;12635;50.852;5.676;2023-03-14T06:19:10;9.20;99.90
24470;DHT22;12635;50.852;5.676;2023-03-14T06:21:37;9.30;99.90
24470;DHT22;12635;50.852;5.676;2023-03-14T06:24:04;9.40;99.90
24470;DHT22;12635;50.852;5.676;2023-03-14T06:26:31;9.40;99.90
24470;DHT22;12635;50.852;5.676;2023-03-14T06:28:59;9.50;99.90
24470;DHT22;12635;50.852;5.676;2023-03-14T06:31:29;9.50;99.90
24470;DHT22;12635;50.852;5.676;2023-03-14T06:33:55;9.60;99.90
24470;DHT22;12635;50.852;5.676;2023-03-14T06:36:22;9.50;99.90
24470;DHT22;12635;50.852;5.676;2023-03-14T06:38:49;9.60;99.90
24470;DHT22;12635;50.852;5.676;2023-03-14T06:41:16;9.60;99.90
24470;DHT22;12635;50.852;5.676;2023-03-14T06:43:43;9.60;99.90
24470;DHT22;12635;50.852;5.676;2023-03-14T06:46:11;9.70;99.90
24470;DHT22;12635;50.852;5.676;2023-03-14T06:48:38;9.70;99.90
24470;DHT22;12635;50.852;5.676;2023-03-14T06:51:05;9.70;99.90
24470;DHT22;12635;50.852;5.676;2023-03-14T06:53:32;9.80;99.90
24470;DHT22;12635;50.852;5.676;2023-03-14T06:55:59;9.80;99.90
24470;DHT22;12635;50.852;5.676;2023-03-14T06:58:26;9.90;99.90
24470;DHT22;12635;50.852;5.676;2023-03-14T07:00:53;10.00;99.90
24470;DHT22;12635;50.852;5.676;2023-03-14T07:03:21;9.90;99.90
24470;DHT22;12635;50.852;5.676;2023-03-14T07:05:48;9.90;99.90
24470;DHT22;12635;50.852;5.676;2023-03-14T07:08:15;10.00;99.90
24470;DHT22;12635;50.852;5.676;2023-03-14T07:10:41;10.00;99.90
24470;DHT22;12635;50.852;5.676;2023-03-14T07:13:08;10.10;99.90
24470;DHT22;12635;50.852;5.676;2023-03-14T07:15:35;10.20;99.90
24470;DHT22;12635;50.852;5.676;2023-03-14T07:18:02;10.30;99.90
24470;DHT22;12635;50.852;5.676;2023-03-14T07:20:30;10.30;99.90
24470;DHT22;12635;50.852;5.676;2023-03-14T07:22:58;10.40;99.90
24470;DHT22;12635;50.852;5.676;2023-03-14T07:25:25;10.40;99.90
24470;DHT22;12635;50.852;5.676;2023-03-14T07:27:52;10.50;99.90
24470;DHT22;12635;50.852;5.676;2023-03-14T07:30:19;10.50;99.90
24470;DHT22;12635;50.852;5.676;2023-03-14T07:32:47;10.60;99.90
24470;DHT22;12635;50.852;5.676;2023-03-14T07:35:14;10.50;99.90
24470;DHT22;12635;50.852;5.676;2023-03-14T07:37:42;10.30;99.90
24470;DHT22;12635;50.852;5.676;2023-03-14T07:40:09;10.20;99.90
24470;DHT22;12635;50.852;5.676;2023-03-14T07:42:40;9.90;99.90
24470;DHT22;12635;50.852;5.676;2023-03-14T07:45:08;9.60;99.90
24470;DHT22;12635;50.852;5.676;2023-03-14T07:47:34;9.60;99.90
24470;DHT22;12635;50.852;5.676;2023-03-14T07:50:02;9.60;99.90
24470;DHT22;12635;50.852;5.676;2023-03-14T07:52:28;9.40;99.90
24470;DHT22;12635;50.852;5.676;2023-03-14T07:54:57;9.40;99.90
24470;DHT22;12635;50.852;5.676;2023-03-14T07:57:24;9.50;99.90
24470;DHT22;12635;50.852;5.676;2023-03-14T07:59:50;9.60;99.90
24470;DHT22;12635;50.852;5.676;2023-03-14T08:02:17;9.60;99.90
24470;DHT22;12635;50.852;5.676;2023-03-14T08:04:47;9.70;99.90
24470;DHT22;12635;50.852;5.676;2023-03-14T08:07:14;9.70;99.90
24470;DHT22;12635;50.852;5.676;2023-03-14T08:09:41;9.90;99.90
24470;DHT22;12635;50.852;5.676;2023-03-14T08:12:09;10.00;99.90
24470;DHT22;12635;50.852;5.676;2023-03-14T08:14:36;9.90;99.90
24470;DHT22;12635;50.852;5.676;2023-03-14T08:17:03;9.70;99.90
24470;DHT22;12635;50.852;5.676;2023-03-14T08:19:30;9.60;99.90
24470;DHT22;12635;50.852;5.676;2023-03-14T08:21:57;8.70;99.90
24470;DHT22;12635;50.852;5.676;2023-03-14T08:24:24;8.00;99.90
24470;DHT22;12635;50.852;5.676;2023-03-14T08:26:51;7.50;99.90
24470;DHT22;12635;50.852;5.676;2023-03-14T08:29:19;7.40;99.90
24470;DHT22;12635;50.852;5.676;2023-03-14T08:31:46;7.30;99.90
24470;DHT22;12635;50.852;5.676;2023-03-14T08:34:14;7.30;99.90
24470;DHT22;12635;50.852;5.676;2023-03-14T08:36:41;7.40;99.90
24470;DHT22;12635;50.852;5.676;2023-03-14T08:39:08;7.10;99.90
24470;DHT22;12635;50.852;5.676;2023-03-14T08:41:35;7.00;99.90
24470;DHT22;12635;50.852;5.676;2023-03-14T08:44:05;7.00;99.90
24470;DHT22;12635;50.852;5.676;2023-03-14T08:46:34;7.10;99.90
24470;DHT22;12635;50.852;5.676;2023-03-14T08:49:00;7.10;99.90
24470;DHT22;12635;50.852;5.676;2023-03-14T08:51:27;7.20;99.90
24470;DHT22;12635;50.852;5.676;2023-03-14T08:53:54;8.70;99.90
24470;DHT22;12635;50.852;5.676;2023-03-14T08:56:21;9.10;99.90
24470;DHT22;12635;50.852;5.676;2023-03-14T08:58:48;9.30;99.90
24470;DHT22;12635;50.852;5.676;2023-03-14T09:01:15;9.30;99.90
24470;DHT22;12635;50.852;5.676;2023-03-14T09:03:45;9.10;99.90
24470;DHT22;12635;50.852;5.676;2023-03-14T09:06:13;9.10;99.90
24470;DHT22;12635;50.852;5.676;2023-03-14T09:08:43;9.00;99.90
24470;DHT22;12635;50.852;5.676;2023-03-14T09:11:11;8.50;99.90
24470;DHT22;12635;50.852;5.676;2023-03-14T09:13:38;8.30;99.90
24470;DHT22;12635;50.852;5.676;2023-03-14T09:16:05;8.30;99.90
24470;DHT22;12635;50.852;5.676;2023-03-14T09:18:33;8.30;99.90
24470;DHT22;12635;50.852;5.676;2023-03-14T09:21:01;8.50;99.90
24470;DHT22;12635;50.852;5.676;2023-03-14T09:23:28;8.40;99.90
24470;DHT22;12635;50.852;5.676;2023-03-14T09:25:55;8.60;99.90
24470;DHT22;12635;50.852;5.676;2023-03-14T09:28:22;8.70;99.90
24470;DHT22;12635;50.852;5.676;2023-03-14T09:30:49;8.80;99.90
24470;DHT22;12635;50.852;5.676;2023-03-14T09:33:17;8.60;99.90
24470;DHT22;12635;50.852;5.676;2023-03-14T09:35:44;8.80;99.90
24470;DHT22;12635;50.852;5.676;2023-03-14T09:38:12;8.60;99.90
24470;DHT22;12635;50.852;5.676;2023-03-14T09:40:40;8.80;99.90
24470;DHT22;12635;50.852;5.676;2023-03-14T09:43:08;8.70;99.90
24470;DHT22;12635;50.852;5.676;2023-03-14T09:45:36;8.70;99.90
24470;DHT22;12635;50.852;5.676;2023-03-14T09:48:05;8.60;99.90
24470;DHT22;12635;50.852;5.676;2023-03-14T09:50:33;8.60;99.90
24470;DHT22;12635;50.852;5.676;2023-03-14T09:53:04;8.80;99.90
24470;DHT22;12635;50.852;5.676;2023-03-14T09:55:34;8.70;99.90
24470;DHT22;12635;50.852;5.676;2023-03-14T09:58:02;8.60;99.90
24470;DHT22;12635;50.852;5.676;2023-03-14T10:00:30;8.50;99.90
24470;DHT22;12635;50.852;5.676;2023-03-14T10:02:59;8.60;99.90
24470;DHT22;12635;50.852;5.676;2023-03-14T10:05:27;8.70;99.90
24470;DHT22;12635;50.852;5.676;2023-03-14T10:07:55;8.90;99.90
24470;DHT22;12635;50.852;5.676;2023-03-14T10:10:22;8.80;99.90
24470;DHT22;12635;50.852;5.676;2023-03-14T10:12:56;8.70;99.90
24470;DHT22;12635;50.852;5.676;2023-03-14T10:15:24;8.60;99.90
24470;DHT22;12635;50.852;5.676;2023-03-14T10:17:51;8.50;99.90
24470;DHT22;12635;50.852;5.676;2023-03-14T10:20:31;8.30;99.90
24470;DHT22;12635;50.852;5.676;2023-03-14T10:22:59;8.40;99.90
24470;DHT22;12635;50.852;5.676;2023-03-14T10:25:27;8.20;99.90
24470;DHT22;12635;50.852;5.676;2023-03-14T10:27:55;8.20;99.90
24470;DHT22;12635;50.852;5.676;2023-03-14T10:33:11;8.10;99.90
24470;DHT22;12635;50.852;5.676;2023-03-14T10:35:39;7.70;99.90
24470;DHT22;12635;50.852;5.676;2023-03-14T10:38:11;7.70;99.90
24470;DHT22;12635;50.852;5.676;2023-03-14T10:40:39;8.00;99.90
24470;DHT22;12635;50.852;5.676;2023-03-14T10:43:13;7.70;99.90
24470;DHT22;12635;50.852;5.676;2023-03-14T10:45:41;7.90;99.90
24470;DHT22;12635;50.852;5.676;2023-03-14T10:48:18;8.00;99.90
24470;DHT22;12635;50.852;5.676;2023-03-14T10:50:50;8.20;99.90
24470;DHT22;12635;50.852;5.676;2023-03-14T10:53:19;8.30;99.90
24470;DHT22;12635;50.852;5.676;2023-03-14T10:55:46;8.20;99.90
24470;DHT22;12635;50.852;5.676;2023-03-14T10:58:22;8.30;99.90
24470;DHT22;12635;50.852;5.676;2023-03-14T11:00:51;7.60;99.90
24470;DHT22;12635;50.852;5.676;2023-03-14T11:03:19;7.90;99.90
24470;DHT22;12635;50.852;5.676;2023-03-14T11:05:46;8.00;99.90
24470;DHT22;12635;50.852;5.676;2023-03-14T11:08:17;7.70;99.90
24470;DHT22;12635;50.852;5.676;2023-03-14T11:10:45;7.40;99.90
24470;DHT22;12635;50.852;5.676;2023-03-14T11:13:16;7.20;99.90
24470;DHT22;12635;50.852;5.676;2023-03-14T11:15:48;6.90;99.90
24470;DHT22;12635;50.852;5.676;2023-03-14T11:21:04;7.20;99.90
24470;DHT22;12635;50.852;5.676;2023-03-14T11:23:38;6.90;99.90
24470;DHT22;12635;50.852;5.676;2023-03-14T11:26:10;6.80;99.90
24470;DHT22;12635;50.852;5.676;2023-03-14T11:28:41;6.70;99.90
24470;DHT22;12635;50.852;5.676;2023-03-14T11:31:15;6.60;99.90
24470;DHT22;12635;50.852;5.676;2023-03-14T11:33:47;6.50;99.90
24470;DHT22;12635;50.852;5.676;2023-03-14T11:36:15;6.30;99.90
24470;DHT22;12635;50.852;5.676;2023-03-14T11:38:46;6.20;99.90
24470;DHT22;12635;50.852;5.676;2023-03-14T11:41:14;6.50;99.90
24470;DHT22;12635;50.852;5.676;2023-03-14T11:43:42;6.40;99.90
24470;DHT22;12635;50.852;5.676;2023-03-14T11:46:15;6.60;99.90
24470;DHT22;12635;50.852;5.676;2023-03-14T11:48:45;6.70;99.90
24470;DHT22;12635;50.852;5.676;2023-03-14T11:51:14;6.70;99.90
24470;DHT22;12635;50.852;5.676;2023-03-14T11:53:50;6.60;99.90
24470;DHT22;12635;50.852;5.676;2023-03-14T11:56:19;6.70;99.90
24470;DHT22;12635;50.852;5.676;2023-03-14T11:58:51;6.70;99.90
24470;DHT22;12635;50.852;5.676;2023-03-14T12:01:22;6.20;99.90
24470;DHT22;12635;50.852;5.676;2023-03-14T12:03:54;5.90;99.90
24470;DHT22;12635;50.852;5.676;2023-03-14T12:06:24;5.80;99.90
24470;DHT22;12635;50.852;5.676;2023-03-14T12:08:52;5.40;99.90
24470;DHT22;12635;50.852;5.676;2023-03-14T12:11:30;4.60;99.90
24470;DHT22;12635;50.852;5.676;2023-03-14T12:13:58;4.60;99.90
24470;DHT22;12635;50.852;5.676;2023-03-14T12:16:36;4.50;99.90
24470;DHT22;12635;50.852;5.676;2023-03-14T12:22:08;4.60;99.90
24470;DHT22;12635;50.852;5.676;2023-03-14T12:24:41;4.90;99.90
24470;DHT22;12635;50.852;5.676;2023-03-14T12:27:12;5.10;99.90
24470;DHT22;12635;50.852;5.676;2023-03-14T12:29:56;5.40;99.90
24470;DHT22;12635;50.852;5.676;2023-03-14T12:32:25;5.60;99.90
24470;DHT22;12635;50.852;5.676;2023-03-14T12:34:52;5.90;99.90
24470;DHT22;12635;50.852;5.676;2023-03-14T12:37:22;6.10;99.90
24470;DHT22;12635;50.852;5.676;2023-03-14T12:39:54;6.40;99.90
24470;DHT22;12635;50.852;5.676;2023-03-14T12:42:35;6.40;99.90
24470;DHT22;12635;50.852;5.676;2023-03-14T12:45:13;6.40;99.90
24470;DHT22;12635;50.852;5.676;2023-03-14T12:47:44;6.10;99.90
24470;DHT22;12635;50.852;5.676;2023-03-14T12:50:14;6.10;99.90
24470;DHT22;12635;50.852;5.676;2023-03-14T12:52:43;5.70;99.90
24470;DHT22;12635;50.852;5.676;2023-03-14T12:55:16;5.80;99.90
24470;DHT22;12635;50.852;5.676;2023-03-14T12:57:47;5.50;99.90
24470;DHT22;12635;50.852;5.676;2023-03-14T13:00:17;5.50;99.90
24470;DHT22;12635;50.852;5.676;2023-03-14T13:02:46;5.20;99.90
24470;DHT22;12635;50.852;5.676;2023-03-14T13:05:15;5.30;99.90
24470;DHT22;12635;50.852;5.676;2023-03-14T13:10:30;5.40;99.90
24470;DHT22;12635;50.852;5.676;2023-03-14T13:13:11;5.40;99.90
24470;DHT22;12635;50.852;5.676;2023-03-14T13:15:41;5.30;99.90
24470;DHT22;12635;50.852;5.676;2023-03-14T13:18:11;5.30;99.90
24470;DHT22;12635;50.852;5.676;2023-03-14T13:20:40;5.30;99.90
24470;DHT22;12635;50.852;5.676;2023-03-14T13:23:18;4.40;99.90
24470;DHT22;12635;50.852;5.676;2023-03-14T13:25:46;4.20;99.90
24470;DHT22;12635;50.852;5.676;2023-03-14T13:28:14;4.10;99.90
24470;DHT22;12635;50.852;5.676;2023-03-14T13:30:42;4.10;99.90
24470;DHT22;12635;50.852;5.676;2023-03-14T13:33:15;4.20;99.90
24470;DHT22;12635;50.852;5.676;2023-03-14T13:35:43;4.30;99.90
24470;DHT22;12635;50.852;5.676;2023-03-14T13:38:15;4.30;99.90
24470;DHT22;12635;50.852;5.676;2023-03-14T13:40:43;4.40;99.90
24470;DHT22;12635;50.852;5.676;2023-03-14T13:43:14;4.40;99.90
24470;DHT22;12635;50.852;5.676;2023-03-14T13:45:43;4.60;99.90
24470;DHT22;12635;50.852;5.676;2023-03-14T13:48:11;4.50;99.90
24470;DHT22;12635;50.852;5.676;2023-03-14T13:50:45;4.60;99.90
24470;DHT22;12635;50.852;5.676;2023-03-14T13:53:12;4.80;99.90
24470;DHT22;12635;50.852;5.676;2023-03-14T13:55:39;4.80;99.90
24470;DHT22;12635;50.852;5.676;2023-03-14T13:58:10;4.90;99.90
24470;DHT22;12635;50.852;5.676;2023-03-14T14:00:38;5.10;99.90
24470;DHT22;12635;50.852;5.676;2023-03-14T14:03:08;5.10;99.90
24470;DHT22;12635;50.852;5.676;2023-03-14T14:05:36;5.00;99.90
24470;DHT22;12635;50.852;5.676;2023-03-14T14:08:10;5.10;99.90
24470;DHT22;12635;50.852;5.676;2023-03-14T14:10:38;5.30;99.90
24470;DHT22;12635;50.852;5.676;2023-03-14T14:13:06;5.40;99.90
24470;DHT22;12635;50.852;5.676;2023-03-14T14:15:35;5.50;99.90
24470;DHT22;12635;50.852;5.676;2023-03-14T14:18:04;5.30;99.90
24470;DHT22;12635;50.852;5.676;2023-03-14T14:20:32;5.20;99.90
24470;DHT22;12635;50.852;5.676;2023-03-14T14:23:00;5.10;99.90
24470;DHT22;12635;50.852;5.676;2023-03-14T14:25:29;5.10;99.90
24470;DHT22;12635;50.852;5.676;2023-03-14T14:27:56;5.20;99.90
24470;DHT22;12635;50.852;5.676;2023-03-14T14:30:28;5.30;99.90
24470;DHT22;12635;50.852;5.676;2023-03-14T14:33:09;5.30;99.90
24470;DHT22;12635;50.852;5.676;2023-03-14T14:35:37;5.30;99.90
24470;DHT22;12635;50.852;5.676;2023-03-14T14:38:08;5.20;99.90
24470;DHT22;12635;50.852;5.676;2023-03-14T14:40:44;5.20;99.90
24470;DHT22;12635;50.852;5.676;2023-03-14T14:43:12;5.40;99.90
24470;DHT22;12635;50.852;5.676;2023-03-14T14:45:42;5.40;99.90
24470;DHT22;12635;50.852;5.676;2023-03-14T14:48:10;5.40;99.90
24470;DHT22;12635;50.852;5.676;2023-03-14T14:50:38;5.50;99.90
24470;DHT22;12635;50.852;5.676;2023-03-14T14:53:18;5.50;99.90
24470;DHT22;12635;50.852;5.676;2023-03-14T14:55:49;5.50;99.90
24470;DHT22;12635;50.852;5.676;2023-03-14T14:58:18;5.40;99.90
24470;DHT22;12635;50.852;5.676;2023-03-14T15:00:49;5.40;99.90
24470;DHT22;12635;50.852;5.676;2023-03-14T15:03:18;5.40;99.90
24470;DHT22;12635;50.852;5.676;2023-03-14T15:05:44;5.40;99.90
24470;DHT22;12635;50.852;5.676;2023-03-14T15:08:11;5.40;99.90
24470;DHT22;12635;50.852;5.676;2023-03-14T15:10:38;5.20;99.90
24470;DHT22;12635;50.852;5.676;2023-03-14T15:13:06;5.20;99.90
24470;DHT22;12635;50.852;5.676;2023-03-14T15:15:33;5.20;99.90
24470;DHT22;12635;50.852;5.676;2023-03-14T15:18:00;5.20;99.90
24470;DHT22;12635;50.852;5.676;2023-03-14T15:20:27;5.00;99.90
24470;DHT22;12635;50.852;5.676;2023-03-14T15:22:54;5.10;99.90
24470;DHT22;12635;50.852;5.676;2023-03-14T15:25:21;5.10;99.90
24470;DHT22;12635;50.852;5.676;2023-03-14T15:27:48;5.30;99.90
24470;DHT22;12635;50.852;5.676;2023-03-14T15:30:16;5.30;99.90
24470;DHT22;12635;50.852;5.676;2023-03-14T15:32:43;5.30;99.90
24470;DHT22;12635;50.852;5.676;2023-03-14T15:35:11;5.20;99.90
24470;DHT22;12635;50.852;5.676;2023-03-14T15:37:40;5.30;99.90
24470;DHT22;12635;50.852;5.676;2023-03-14T15:40:09;5.30;99.90
24470;DHT22;12635;50.852;5.676;2023-03-14T15:42:39;5.40;99.90
24470;DHT22;12635;50.852;5.676;2023-03-14T15:45:06;5.30;99.90
24470;DHT22;12635;50.852;5.676;2023-03-14T15:47:35;5.30;99.90
24470;DHT22;12635;50.852;5.676;2023-03-14T15:50:02;5.30;99.90
24470;DHT22;12635;50.852;5.676;2023-03-14T15:52:29;5.20;99.90
24470;DHT22;12635;50.852;5.676;2023-03-14T15:54:56;5.30;99.90
24470;DHT22;12635;50.852;5.676;2023-03-14T15:57:23;5.30;99.90
24470;DHT22;12635;50.852;5.676;2023-03-14T15:59:50;5.20;99.90
24470;DHT22;12635;50.852;5.676;2023-03-14T16:02:17;5.30;99.90